Главная страница
METAR-TAF:

METAR-TAF

Аэропорты :

Актау, Казахстан

широта: 43-52-12N, долгота: 051-06E, высота над уровнем моря: м

Текущие метеонаблюдения

Эта сводка был подготовлена 19 минут назад, в 11:00 UTC
Ветер 12 Узел от западно-северо-западный, изменяющийся между западный и северно-северо-западный
Температура 21°C
Влажность 56%
Давление 1016 hPa
Видимость 10 км и более
небольшая облачность на высоте 2600 фута

METAR: UATE 261100Z 29006MPS 260V340 9999 FEW026 21/12 Q1016 R30/0///70 NOSIG RMK QFE760/1014

Время: 16:19 (11:19 UTC)

Прогноз

Эта сводка был подготовлена 6 часа и 18 минут назад, в 05:01 UTC
Прогноз действительный с 26-го 06 UTC до 27-го 06 UTC
Ветер 16 Узел от западно-северо-западный
Видимость 10 км и более
небольшая облачность на высоте 2000 фута, Кучево-дождевые.

TAF: UATE 260501Z 2606/2706 30008MPS 9999 FEW020CB TX24/2609Z TN14/2702Z

Метеонаблюдения и прогнозы для более 4000 аэропортов (сводки METAR и TAF).

Имеющиеся станции представлены на карте желтыми и красными точками.

Чтобы увидеть название станции, наведите на нее мышь.

Затем щелкните, чтобы увидеть метеонаблюдения и метеопрогнозы.

Управление картой: чтобы увеличить масштаб, щелкните зеленые кнопки с черным крестиком; чтобы уменьшить масштаб, щелкните зеленую кнопку с тире; для просмотра соседних карт щелкайте зеленые стрелки.


METAR-TAF: